Time;durP1;ratioP1;P1;durP2;ratioP2;P2;SDS_P1;SDS_P2;PMS_P1;PMS_P2;Temp;Humidity;BMP_temperature;BMP_pressure;BME280_temperature;BME280_humidity;BME280_pressure;Samples;Min_cycle;Max_cycle;Signal;HPM_P1;HPM_P2
2023/08/08 00:02:21;;;;;;;5.50;2.00;;;;;;;15.55;75.54;99574.71;103858;277;38280;-73
2023/08/08 00:04:57;;;;;;;3.60;1.80;;;;;;;15.50;75.34;99575.73;103860;277;38255;-72
2023/08/08 00:07:34;;;;;;;5.20;1.80;;;;;;;15.46;75.24;99577.45;103875;277;39407;-72
2023/08/08 00:10:12;;;;;;;6.90;1.90;;;;;;;15.42;75.07;99585.45;103852;277;38269;-72
2023/08/08 00:12:46;;;;;;;3.30;1.40;;;;;;;15.39;74.91;99589.71;103874;277;38382;-74
2023/08/08 00:15:20;;;;;;;6.20;1.70;;;;;;;15.35;74.63;99590.50;103852;277;38488;-76
2023/08/08 00:17:55;;;;;;;2.90;1.40;;;;;;;15.31;74.53;99596.96;103899;277;38470;-75
2023/08/08 00:20:29;;;;;;;3.40;1.50;;;;;;;15.24;74.36;99598.13;103939;277;38237;-73
2023/08/08 00:23:03;;;;;;;3.90;1.70;;;;;;;15.18;74.34;99603.45;103735;277;39406;-75
2023/08/08 00:25:40;;;;;;;2.60;1.80;;;;;;;15.15;74.12;99607.58;103836;277;38490;-74
2023/08/08 00:28:17;;;;;;;5.60;1.60;;;;;;;15.10;74.25;99609.31;103886;277;38496;-73
2023/08/08 00:30:54;;;;;;;4.70;1.80;;;;;;;15.06;74.02;99611.31;103725;277;38594;-74
2023/08/08 00:33:30;;;;;;;3.30;1.60;;;;;;;15.03;74.15;99612.27;103912;277;38402;-75
2023/08/08 00:36:06;;;;;;;4.80;1.70;;;;;;;15.03;74.05;99614.53;103906;277;38469;-73
2023/08/08 00:38:40;;;;;;;3.30;1.70;;;;;;;15.02;73.76;99614.57;103943;277;39609;-73
2023/08/08 00:41:18;;;;;;;6.00;1.70;;;;;;;15.04;73.72;99619.17;103964;277;38260;-74
2023/08/08 00:43:52;;;;;;;4.10;1.70;;;;;;;15.04;73.53;99619.54;103691;266;39690;-75
2023/08/08 00:46:26;;;;;;;4.60;2.00;;;;;;;15.03;73.27;99618.72;103945;277;39427;-73
2023/08/08 00:49:00;;;;;;;5.60;1.90;;;;;;;15.00;73.10;99623.36;103305;277;897772;-73
2023/08/08 00:51:36;;;;;;;4.80;2.10;;;;;;;14.98;73.24;99625.45;103927;274;38793;-75
2023/08/08 00:54:10;;;;;;;6.40;1.80;;;;;;;14.96;72.95;99632.90;103874;277;39528;-74
2023/08/08 00:56:45;;;;;;;4.10;1.90;;;;;;;14.93;72.91;99639.96;103944;277;38301;-74
2023/08/08 00:59:19;;;;;;;5.70;1.60;;;;;;;14.90;72.72;99648.59;103951;277;38400;-73
2023/08/08 01:01:53;;;;;;;6.90;2.30;;;;;;;14.85;72.61;99652.98;103932;277;38528;-73
2023/08/08 01:04:27;;;;;;;3.30;1.90;;;;;;;14.81;72.77;99655.71;103892;277;38301;-74
2023/08/08 01:07:06;;;;;;;3.80;2.00;;;;;;;14.77;72.75;99661.92;103898;277;40433;-73
2023/08/08 01:09:46;;;;;;;4.10;2.00;;;;;;;14.73;72.83;99660.67;103953;277;39489;-72
2023/08/08 01:12:21;;;;;;;6.10;2.20;;;;;;;14.67;72.84;99660.14;103962;277;38390;-72
2023/08/08 01:14:57;;;;;;;5.60;2.20;;;;;;;14.63;73.00;99657.05;103890;277;38582;-73
2023/08/08 01:17:33;;;;;;;3.90;1.80;;;;;;;14.60;73.15;99655.17;103924;277;38266;-75
2023/08/08 01:20:13;;;;;;;4.60;2.10;;;;;;;14.55;73.16;99661.30;103805;277;175078;-73
2023/08/08 01:22:56;;;;;;;4.20;2.00;;;;;;;14.51;73.34;99666.30;103950;277;39464;-73
2023/08/08 01:25:30;;;;;;;4.50;2.10;;;;;;;14.46;73.47;99664.65;103922;277;38307;-74
2023/08/08 01:28:05;;;;;;;4.00;1.80;;;;;;;14.42;73.54;99672.31;103885;277;39558;-73
2023/08/08 01:30:39;;;;;;;4.60;1.70;;;;;;;14.38;73.57;99675.73;103868;277;39038;-73
2023/08/08 01:33:15;;;;;;;4.30;1.60;;;;;;;14.34;73.74;99679.46;103934;277;38739;-72
2023/08/08 01:35:57;;;;;;;3.70;1.70;;;;;;;14.32;73.82;99682.10;103890;277;39672;-74
2023/08/08 01:38:35;;;;;;;5.10;2.10;;;;;;;14.30;73.88;99682.55;103929;277;39400;-73
2023/08/08 01:41:09;;;;;;;5.00;2.10;;;;;;;14.28;73.94;99688.31;103876;277;38335;-74
2023/08/08 01:43:43;;;;;;;5.10;1.60;;;;;;;14.25;73.85;99693.08;103739;277;38243;-73
2023/08/08 01:46:17;;;;;;;5.10;1.90;;;;;;;14.20;73.78;99692.48;103859;277;39852;-74
2023/08/08 01:48:51;;;;;;;5.30;1.80;;;;;;;14.16;73.85;99690.09;103859;277;39399;-72
2023/08/08 01:51:27;;;;;;;4.00;1.90;;;;;;;14.11;73.82;99692.84;103888;277;38265;-75
2023/08/08 01:54:01;;;;;;;4.30;1.60;;;;;;;14.08;73.99;99694.11;103845;277;38738;-73
2023/08/08 01:56:36;;;;;;;4.80;1.60;;;;;;;14.08;74.19;99698.88;103780;279;38888;-73
2023/08/08 01:59:10;;;;;;;3.50;1.80;;;;;;;14.09;74.26;99700.21;103852;277;39683;-73
2023/08/08 02:01:44;;;;;;;5.20;1.70;;;;;;;14.09;74.19;99702.67;103914;277;39957;-74
2023/08/08 02:04:18;;;;;;;4.90;1.60;;;;;;;14.07;74.23;99704.31;103858;277;38513;-76
2023/08/08 02:06:51;;;;;;;5.10;1.90;;;;;;;14.06;74.32;99708.64;103868;277;38479;-73
2023/08/08 02:09:26;;;;;;;4.00;1.90;;;;;;;14.02;74.29;99707.83;103831;277;38275;-73
2023/08/08 02:12:00;;;;;;;4.20;1.90;;;;;;;14.00;74.39;99710.76;103843;277;38431;-73
2023/08/08 02:14:34;;;;;;;5.50;2.20;;;;;;;13.99;74.35;99709.96;103836;277;38810;-73
2023/08/08 02:17:08;;;;;;;4.20;2.10;;;;;;;13.94;74.38;99713.58;103898;277;38728;-75
2023/08/08 02:19:42;;;;;;;6.50;2.00;;;;;;;13.90;74.22;99719.42;103822;277;39144;-76
2023/08/08 02:22:20;;;;;;;4.30;1.90;;;;;;;13.87;74.37;99721.72;103742;277;39139;-73
2023/08/08 02:24:53;;;;;;;6.00;2.20;;;;;;;13.84;74.29;99724.20;103816;277;39794;-73
2023/08/08 02:27:27;;;;;;;5.60;1.80;;;;;;;13.82;74.28;99727.67;103851;277;39573;-74
2023/08/08 02:30:01;;;;;;;5.60;2.00;;;;;;;13.78;74.23;99732.66;103859;277;38234;-74
2023/08/08 02:32:38;;;;;;;5.60;1.70;;;;;;;13.76;74.42;99733.66;103855;274;39180;-75
2023/08/08 02:35:12;;;;;;;5.10;1.90;;;;;;;13.71;74.20;99735.67;103842;277;39639;-73
2023/08/08 02:37:49;;;;;;;5.20;2.00;;;;;;;13.66;74.30;99741.21;103881;277;39415;-75
2023/08/08 02:40:24;;;;;;;4.70;2.30;;;;;;;13.62;74.37;99742.51;103812;277;39775;-73
2023/08/08 02:43:00;;;;;;;4.70;2.00;;;;;;;13.59;74.39;99749.95;103856;277;39821;-73
2023/08/08 02:45:35;;;;;;;5.20;1.70;;;;;;;13.56;74.42;99747.86;103885;277;38623;-74
2023/08/08 02:48:09;;;;;;;4.00;2.20;;;;;;;13.53;74.48;99752.04;103793;266;38820;-73
2023/08/08 02:50:47;;;;;;;4.30;2.50;;;;;;;13.50;74.47;99756.09;103890;277;38794;-73
2023/08/08 02:53:22;;;;;;;3.90;1.90;;;;;;;13.46;74.42;99754.18;103799;277;40523;-73
2023/08/08 02:56:01;;;;;;;6.40;2.20;;;;;;;13.43;74.50;99761.73;103873;277;38719;-74
2023/08/08 02:58:38;;;;;;;5.60;2.20;;;;;;;13.40;74.33;99764.86;103822;266;38505;-74
2023/08/08 03:01:15;;;;;;;4.50;2.10;;;;;;;13.38;74.29;99769.07;103835;277;38381;-73
2023/08/08 03:03:57;;;;;;;3.60;1.50;;;;;;;13.35;74.44;99774.31;103865;277;38457;-75
2023/08/08 03:06:32;;;;;;;3.90;1.90;;;;;;;13.32;74.36;99773.06;103888;277;38564;-72
2023/08/08 03:09:07;;;;;;;5.10;1.80;;;;;;;13.29;74.38;99774.86;103859;277;39397;-73
2023/08/08 03:11:44;;;;;;;5.80;2.10;;;;;;;13.26;74.32;99781.66;103888;277;38262;-73
2023/08/08 03:14:19;;;;;;;4.70;2.30;;;;;;;13.24;74.28;99787.41;103866;277;38230;-74
2023/08/08 03:16:53;;;;;;;5.70;2.00;;;;;;;13.22;74.45;99789.09;103880;277;38233;-75
2023/08/08 03:19:27;;;;;;;5.60;2.00;;;;;;;13.20;74.41;99791.98;103844;277;38544;-74
2023/08/08 03:22:04;;;;;;;4.80;1.90;;;;;;;13.18;74.44;99794.91;103876;277;38224;-74
2023/08/08 03:24:40;;;;;;;4.50;1.80;;;;;;;13.17;74.36;99797.23;103803;278;39471;-73
2023/08/08 03:27:14;;;;;;;6.90;1.90;;;;;;;13.15;74.42;99797.70;103841;277;38494;-73
2023/08/08 03:29:50;;;;;;;4.80;2.20;;;;;;;13.14;74.40;99805.44;103900;277;38235;-72
2023/08/08 03:32:24;;;;;;;3.70;1.80;;;;;;;13.12;74.49;99802.91;103854;277;38315;-73
2023/08/08 03:35:00;;;;;;;4.70;1.80;;;;;;;13.11;74.50;99804.02;103828;277;38295;-74
2023/08/08 03:37:34;;;;;;;4.40;2.00;;;;;;;13.12;74.68;99805.94;103881;277;38280;-75
2023/08/08 03:40:11;;;;;;;3.40;1.80;;;;;;;13.13;74.69;99809.00;103795;277;39476;-74
2023/08/08 03:42:47;;;;;;;4.60;1.90;;;;;;;13.14;74.75;99813.69;103342;277;773845;-73
2023/08/08 03:45:21;;;;;;;5.00;1.90;;;;;;;13.16;74.65;99817.21;103853;277;39394;-72
2023/08/08 03:47:55;;;;;;;6.00;2.30;;;;;;;13.17;74.58;99820.84;103883;277;38912;-73
2023/08/08 03:50:31;;;;;;;5.60;2.10;;;;;;;13.18;74.61;99825.90;103848;277;38353;-73
2023/08/08 03:53:07;;;;;;;4.00;2.20;;;;;;;13.19;74.64;99829.52;103809;277;189925;-73
2023/08/08 03:55:41;;;;;;;7.80;2.00;;;;;;;13.21;74.65;99830.46;103833;277;38514;-74
2023/08/08 03:58:19;;;;;;;5.30;2.00;;;;;;;13.22;74.76;99837.77;103875;277;38240;-73
2023/08/08 04:00:56;;;;;;;3.90;1.90;;;;;;;13.25;74.80;99841.30;103866;277;38274;-73
2023/08/08 04:03:31;;;;;;;4.60;1.70;;;;;;;13.29;74.80;99845.94;103851;277;38860;-73
2023/08/08 04:06:05;;;;;;;4.50;1.60;;;;;;;13.33;74.85;99848.70;103891;277;39447;-76
2023/08/08 04:08:39;;;;;;;5.90;1.70;;;;;;;13.37;74.73;99854.58;103844;277;38314;-72
2023/08/08 04:11:15;;;;;;;5.10;2.10;;;;;;;13.40;74.69;99852.84;103914;277;38471;-72
2023/08/08 04:13:49;;;;;;;5.00;1.70;;;;;;;13.46;74.64;99859.02;103279;277;899743;-75
2023/08/08 04:16:25;;;;;;;4.70;1.90;;;;;;;13.53;74.73;99861.55;103892;277;40010;-74
2023/08/08 04:19:03;;;;;;;3.70;1.70;;;;;;;13.61;74.60;99864.74;103985;277;38520;-75
2023/08/08 04:21:37;;;;;;;4.20;1.60;;;;;;;13.70;74.59;99866.52;103921;277;38558;-73
2023/08/08 04:24:12;;;;;;;4.80;1.90;;;;;;;13.82;74.69;99867.73;103945;277;38604;-74
2023/08/08 04:26:47;;;;;;;5.20;1.90;;;;;;;13.96;74.53;99873.55;103845;277;175197;-73
2023/08/08 04:29:21;;;;;;;5.40;1.80;;;;;;;14.11;74.49;99873.19;103938;277;38539;-73
2023/08/08 04:31:58;;;;;;;6.80;2.50;;;;;;;14.25;74.21;99880.23;103917;277;39373;-73
2023/08/08 04:34:33;;;;;;;3.70;2.20;;;;;;;14.38;74.01;99878.02;103905;277;38372;-73
2023/08/08 04:37:07;;;;;;;5.70;1.50;;;;;;;14.50;73.43;99876.81;103938;277;39277;-77
2023/08/08 04:39:41;;;;;;;5.40;1.60;;;;;;;14.61;73.30;99879.96;103914;277;38275;-76
2023/08/08 04:42:16;;;;;;;5.10;2.00;;;;;;;14.72;72.74;99884.04;103926;277;38913;-74
2023/08/08 04:44:50;;;;;;;7.10;2.00;;;;;;;14.79;72.46;99884.64;103925;277;39416;-76
2023/08/08 04:47:25;;;;;;;5.50;2.00;;;;;;;14.86;72.40;99888.25;103944;277;38262;-72
2023/08/08 04:50:01;;;;;;;3.90;1.80;;;;;;;14.91;71.98;99889.50;103908;277;38373;-75
2023/08/08 04:52:37;;;;;;;;;;;;;;;14.97;71.68;99897.34;103952;277;38455;-74
2023/08/08 04:55:12;;;;;;;4.00;1.70;;;;;;;15.07;71.76;99898.14;103808;277;189700;-75
2023/08/08 04:57:46;;;;;;;4.50;1.70;;;;;;;15.39;71.85;99903.92;103938;277;38302;-74
2023/08/08 05:00:20;;;;;;;4.10;2.50;;;;;;;15.95;72.14;99905.17;103795;277;175026;-74
2023/08/08 05:02:56;;;;;;;5.30;2.10;;;;;;;16.80;72.35;99905.12;103754;277;38738;-75
2023/08/08 05:05:30;;;;;;;3.60;1.60;;;;;;;17.47;69.30;99897.95;103847;277;172258;-75
2023/08/08 05:08:05;;;;;;;4.00;1.70;;;;;;;17.50;66.89;99900.86;103968;277;39569;-76
2023/08/08 05:10:39;;;;;;;6.50;1.80;;;;;;;17.41;65.45;99903.48;103920;277;39633;-74
2023/08/08 05:13:16;;;;;;;3.70;1.60;;;;;;;17.29;65.06;99905.08;103954;277;38268;-74
2023/08/08 05:15:51;;;;;;;6.40;2.00;;;;;;;17.21;64.61;99907.27;103756;279;38679;-74
2023/08/08 05:18:29;;;;;;;3.80;1.70;;;;;;;17.14;64.51;99910.92;103873;277;39382;-73
2023/08/08 05:21:05;;;;;;;3.80;1.80;;;;;;;17.14;64.54;99914.98;103878;277;38266;-75
2023/08/08 05:23:41;;;;;;;4.60;2.00;;;;;;;17.15;64.05;99915.27;103814;277;39560;-74
2023/08/08 05:26:19;;;;;;;3.50;2.00;;;;;;;17.13;63.97;99918.05;103901;277;39973;-74
2023/08/08 05:28:55;;;;;;;4.10;1.90;;;;;;;17.16;63.87;99911.72;103858;277;39674;-74
2023/08/08 05:31:36;;;;;;;3.90;2.00;;;;;;;17.18;64.24;99916.27;103915;277;38255;-75
2023/08/08 05:34:13;;;;;;;4.50;2.10;;;;;;;17.21;63.86;99923.83;103837;277;38515;-74
2023/08/08 05:36:49;;;;;;;5.10;1.70;;;;;;;17.19;63.21;99927.19;103895;277;39431;-75
2023/08/08 05:39:24;;;;;;;4.70;2.00;;;;;;;17.13;62.58;99927.61;103914;277;38241;-74
2023/08/08 05:42:03;;;;;;;5.90;2.30;;;;;;;17.11;63.06;99930.27;103916;277;39419;-74
2023/08/08 05:44:38;;;;;;;5.00;1.90;;;;;;;17.10;63.01;99927.26;103820;277;39990;-72
2023/08/08 05:47:14;;;;;;;5.40;1.80;;;;;;;17.11;63.05;99934.27;103874;277;38248;-76
2023/08/08 05:49:48;;;;;;;4.00;2.00;;;;;;;17.13;63.26;99936.23;103842;277;39423;-75
2023/08/08 05:52:27;;;;;;;3.40;1.70;;;;;;;17.16;63.26;99945.73;103906;277;37202;-74
2023/08/08 05:55:01;;;;;;;5.40;2.40;;;;;;;17.18;63.14;99941.69;103855;277;38882;-74
2023/08/08 05:57:37;;;;;;;4.30;2.00;;;;;;;17.25;62.83;99940.66;103850;277;38241;-74
2023/08/08 06:00:17;;;;;;;5.30;2.00;;;;;;;17.30;62.75;99944.16;103864;277;38373;-76
2023/08/08 06:02:52;;;;;;;6.10;2.10;;;;;;;17.42;63.06;99946.11;103836;277;38486;-75
2023/08/08 06:05:29;;;;;;;5.60;1.80;;;;;;;17.52;62.64;99947.98;103838;277;38269;-73
2023/08/08 06:08:07;;;;;;;4.70;1.90;;;;;;;17.62;61.12;99949.05;103914;277;39443;-72
2023/08/08 06:10:49;;;;;;;4.80;1.80;;;;;;;17.65;61.29;99955.35;103867;277;38282;-72
2023/08/08 06:13:23;;;;;;;4.10;2.20;;;;;;;17.81;60.94;99957.34;103855;277;38386;-72
2023/08/08 06:16:01;;;;;;;3.40;1.80;;;;;;;18.01;61.59;99961.89;103741;278;38245;-74
2023/08/08 06:18:35;;;;;;;4.40;2.00;;;;;;;18.19;61.18;99963.27;103856;277;39605;-74
2023/08/08 06:21:09;;;;;;;4.40;1.90;;;;;;;18.40;60.81;99962.23;103852;277;38409;-73
2023/08/08 06:23:44;;;;;;;5.10;1.90;;;;;;;18.71;60.35;99958.06;103845;277;38357;-74
2023/08/08 06:26:21;;;;;;;8.00;2.70;;;;;;;19.01;58.93;99960.80;103885;277;38524;-73
2023/08/08 06:28:58;;;;;;;6.20;1.70;;;;;;;19.07;57.55;99965.12;103824;277;38239;-73
2023/08/08 06:31:32;;;;;;;4.30;2.30;;;;;;;19.07;57.60;99964.56;103853;277;39423;-75
2023/08/08 06:34:08;;;;;;;3.30;1.70;;;;;;;19.14;57.16;99961.27;103822;277;39402;-73
2023/08/08 06:36:43;;;;;;;5.30;2.00;;;;;;;19.21;57.04;99965.81;103862;277;38236;-75
2023/08/08 06:39:21;;;;;;;5.20;1.90;;;;;;;19.19;55.54;99972.17;103803;278;38432;-74
2023/08/08 06:42:00;;;;;;;3.90;1.80;;;;;;;19.04;55.70;99975.21;103867;277;38236;-75
2023/08/08 06:44:41;;;;;;;4.20;1.90;;;;;;;18.93;56.11;99979.30;103874;277;38565;-74
2023/08/08 06:47:15;;;;;;;5.60;1.90;;;;;;;18.81;56.05;99982.94;103769;277;174606;-74
2023/08/08 06:49:50;;;;;;;4.60;1.80;;;;;;;18.69;55.97;99983.19;103886;277;38805;-75
2023/08/08 06:52:25;;;;;;;4.90;2.10;;;;;;;18.64;56.30;99983.54;103894;277;38626;-73
2023/08/08 06:55:05;;;;;;;3.70;1.70;;;;;;;18.87;56.91;99983.35;103858;277;38252;-73
2023/08/08 06:57:43;;;;;;;6.60;2.00;;;;;;;19.09;56.60;99986.89;103914;277;38522;-73
2023/08/08 07:00:19;;;;;;;7.70;2.10;;;;;;;19.35;55.97;99986.45;103869;277;39637;-74
2023/08/08 07:02:53;;;;;;;4.40;2.00;;;;;;;19.58;56.04;99982.92;103834;277;39447;-75
2023/08/08 07:05:30;;;;;;;4.10;1.60;;;;;;;19.72;55.35;99982.89;103855;277;39453;-75
2023/08/08 07:08:04;;;;;;;4.80;2.10;;;;;;;19.84;54.68;99983.86;103915;277;39441;-76
2023/08/08 07:10:39;;;;;;;5.50;1.90;;;;;;;19.96;54.16;99981.45;103818;277;38379;-73
2023/08/08 07:13:15;;;;;;;3.20;1.70;;;;;;;20.07;53.55;99977.09;103897;277;38277;-75
2023/08/08 07:15:50;;;;;;;4.00;1.70;;;;;;;20.21;53.02;99978.13;103861;277;38806;-74
2023/08/08 07:18:24;;;;;;;4.40;1.80;;;;;;;20.38;53.30;99982.63;103861;277;38267;-75
2023/08/08 07:21:02;;;;;;;4.50;1.90;;;;;;;20.58;52.66;99987.87;103918;277;38243;-74
2023/08/08 07:23:36;;;;;;;6.40;1.80;;;;;;;20.73;51.86;99985.55;103852;277;39395;-75
2023/08/08 07:26:10;;;;;;;4.80;1.60;;;;;;;20.93;51.52;99983.48;103879;277;40563;-76
2023/08/08 07:28:44;;;;;;;4.20;2.10;;;;;;;20.99;51.76;99981.99;103858;277;39840;-76
2023/08/08 07:31:22;;;;;;;5.20;2.00;;;;;;;20.88;50.77;99986.17;103777;277;38218;-75
2023/08/08 07:33:59;;;;;;;4.30;2.00;;;;;;;20.73;50.75;99991.92;103805;278;38748;-76
2023/08/08 07:36:34;;;;;;;5.80;2.00;;;;;;;20.58;50.52;99995.16;103890;277;38389;-75
2023/08/08 07:39:08;;;;;;;4.00;2.00;;;;;;;20.44;50.89;99994.42;103847;277;38719;-75
2023/08/08 07:41:45;;;;;;;5.60;2.30;;;;;;;20.35;51.77;99999.58;103873;277;38270;-75
2023/08/08 07:44:21;;;;;;;3.00;1.70;;;;;;;20.34;51.52;99991.84;103814;277;38250;-75
2023/08/08 07:46:56;;;;;;;5.70;1.50;;;;;;;20.40;51.31;99996.50;103903;277;39310;-75
2023/08/08 07:49:36;;;;;;;6.60;1.90;;;;;;;20.48;51.28;100004.35;103857;277;39719;-75
2023/08/08 07:52:10;;;;;;;5.90;1.80;;;;;;;20.46;50.54;99996.05;103908;277;39493;-75
2023/08/08 07:54:46;;;;;;;4.50;1.90;;;;;;;20.33;50.45;100001.54;103842;277;39495;-77
2023/08/08 07:57:22;;;;;;;4.90;1.70;;;;;;;20.26;50.47;99996.12;103868;277;38619;-77
2023/08/08 08:00:01;;;;;;;3.90;1.90;;;;;;;20.22;50.59;99994.70;103853;277;39445;-77
2023/08/08 08:02:35;;;;;;;4.70;1.60;;;;;;;20.30;50.85;99995.93;103869;277;38702;-76
2023/08/08 08:05:11;;;;;;;4.30;1.90;;;;;;;20.61;50.70;100002.73;103883;277;39609;-77
2023/08/08 08:07:45;;;;;;;4.30;1.90;;;;;;;20.93;50.57;99995.55;103879;277;38818;-75
2023/08/08 08:10:22;;;;;;;4.10;2.00;;;;;;;21.45;50.90;99996.59;103856;277;39396;-75
2023/08/08 08:12:58;;;;;;;5.40;1.80;;;;;;;21.96;48.81;99995.02;103828;267;39444;-74
2023/08/08 08:15:34;;;;;;;5.30;1.80;;;;;;;22.70;48.68;99992.05;103885;277;39714;-71
2023/08/08 08:18:09;;;;;;;4.60;2.30;;;;;;;23.75;47.92;99989.20;103850;277;38788;-76
2023/08/08 08:20:46;;;;;;;3.50;1.60;;;;;;;24.77;45.70;99988.46;103952;277;38998;-76
2023/08/08 08:23:20;;;;;;;3.90;1.80;;;;;;;25.50;42.72;99983.65;103927;277;38248;-75
2023/08/08 08:25:54;;;;;;;3.90;1.60;;;;;;;25.55;41.79;99987.29;103896;277;38399;-75
2023/08/08 08:28:28;;;;;;;5.10;1.90;;;;;;;25.86;40.33;99988.02;103921;277;39205;-74
2023/08/08 08:31:10;;;;;;;4.30;1.40;;;;;;;26.18;39.03;99981.30;103915;277;38254;-74
2023/08/08 08:33:44;;;;;;;4.80;1.50;;;;;;;26.52;38.30;99991.13;103947;277;38610;-74
2023/08/08 08:36:23;;;;;;;4.10;1.70;;;;;;;26.96;37.54;99983.77;103875;277;38522;-73
2023/08/08 08:38:57;;;;;;;3.00;1.50;;;;;;;27.29;36.63;99986.05;103836;277;39461;-75
2023/08/08 08:41:31;;;;;;;3.50;1.50;;;;;;;27.09;36.29;99984.64;103950;277;39679;-73
2023/08/08 08:44:07;;;;;;;2.80;1.30;;;;;;;26.69;36.27;99993.23;103921;277;38386;-76
2023/08/08 08:46:42;;;;;;;4.20;1.60;;;;;;;26.49;36.65;99991.87;103919;277;38485;-76
2023/08/08 08:49:18;;;;;;;5.20;1.60;;;;;;;26.71;36.91;99992.33;103926;277;40145;-76
2023/08/08 08:51:56;;;;;;;6.00;1.60;;;;;;;26.64;36.49;99991.33;103911;277;38394;-75
2023/08/08 08:54:30;;;;;;;4.70;1.40;;;;;;;26.35;36.54;99992.04;103877;278;38237;-76
2023/08/08 08:57:06;;;;;;;8.50;1.50;;;;;;;26.07;37.09;99994.34;103930;277;39451;-76
2023/08/08 08:59:42;;;;;;;5.10;1.50;;;;;;;25.84;37.05;99994.32;103810;278;39637;-73
2023/08/08 09:02:16;;;;;;;4.90;1.60;;;;;;;25.41;37.03;99997.69;103914;278;38266;-74
2023/08/08 09:04:56;;;;;;;5.00;1.50;;;;;;;25.01;37.69;99999.73;103741;277;38828;-74
2023/08/08 09:07:31;;;;;;;3.70;1.30;;;;;;;25.03;37.92;99999.92;103961;277;39240;-75
2023/08/08 09:10:08;;;;;;;2.60;1.30;;;;;;;25.31;37.90;99996.23;103991;277;38409;-74
2023/08/08 09:12:44;;;;;;;3.30;1.40;;;;;;;25.37;37.66;100000.02;103991;277;38651;-74
2023/08/08 09:15:18;;;;;;;4.30;1.30;;;;;;;25.43;37.16;100008.02;103958;277;39651;-73
2023/08/08 09:17:52;;;;;;;4.20;1.50;;;;;;;25.27;36.75;100003.81;103902;277;38370;-75
2023/08/08 09:20:27;;;;;;;2.80;1.20;;;;;;;25.10;37.43;100003.94;103920;277;40070;-75
2023/08/08 09:23:05;;;;;;;3.40;1.50;;;;;;;25.19;37.58;100005.56;104031;266;38402;-75
2023/08/08 09:25:39;;;;;;;4.20;1.50;;;;;;;25.19;37.96;100007.11;103963;277;39511;-74
2023/08/08 09:28:16;;;;;;;3.40;1.60;;;;;;;25.07;37.45;100007.35;103884;277;39631;-75
2023/08/08 09:30:53;;;;;;;3.70;1.30;;;;;;;24.84;37.12;100014.23;103878;278;38943;-75
2023/08/08 09:33:35;;;;;;;3.60;1.60;;;;;;;24.47;37.08;100013.17;103937;277;38267;-75
2023/08/08 09:36:17;;;;;;;3.20;1.30;;;;;;;24.07;37.54;100016.95;103933;277;38336;-74
2023/08/08 09:38:55;;;;;;;4.90;1.40;;;;;;;23.71;37.82;100021.14;103720;279;38575;-75
2023/08/08 09:41:33;;;;;;;2.30;1.30;;;;;;;23.36;38.25;100025.59;103938;277;39014;-75
2023/08/08 09:44:14;;;;;;;3.80;1.40;;;;;;;23.15;39.39;100022.82;103946;277;38526;-74
2023/08/08 09:46:48;;;;;;;1.80;1.20;;;;;;;23.17;39.71;100023.45;104010;277;38465;-74
2023/08/08 09:49:31;;;;;;;4.60;1.30;;;;;;;23.21;39.90;100021.20;103958;277;38687;-74
2023/08/08 09:52:09;;;;;;;2.50;1.30;;;;;;;23.33;41.13;100024.40;103957;277;38249;-74
2023/08/08 09:54:48;;;;;;;3.40;1.30;;;;;;;23.58;41.21;100021.43;103931;277;38440;-73
2023/08/08 09:57:22;;;;;;;3.30;1.40;;;;;;;23.84;40.36;100021.76;103713;277;174419;-75
2023/08/08 10:00:00;;;;;;;4.00;1.20;;;;;;;23.96;39.30;100015.45;103989;277;38765;-75
2023/08/08 10:02:35;;;;;;;2.80;1.20;;;;;;;23.79;38.50;100024.62;103898;277;38264;-77
2023/08/08 10:05:13;;;;;;;5.50;1.30;;;;;;;23.76;39.57;100024.00;103877;277;39424;-76
2023/08/08 10:07:50;;;;;;;3.20;1.50;;;;;;;23.88;38.65;100018.40;103839;277;38802;-75
2023/08/08 10:10:26;;;;;;;3.00;1.20;;;;;;;23.84;38.24;100014.70;103823;277;39454;-76
2023/08/08 10:13:00;;;;;;;3.70;1.40;;;;;;;23.56;37.73;100006.17;103867;277;38610;-76
2023/08/08 10:15:34;;;;;;;3.10;1.30;;;;;;;23.43;38.98;100009.02;103720;278;39461;-75
2023/08/08 10:18:14;;;;;;;4.90;1.30;;;;;;;23.29;38.56;100010.04;103852;277;39678;-75
2023/08/08 10:20:50;;;;;;;5.30;1.20;;;;;;;23.10;38.26;100007.30;103771;278;38530;-74
2023/08/08 10:23:25;;;;;;;3.00;1.20;;;;;;;22.89;37.96;100016.35;103757;278;38463;-75
2023/08/08 10:26:02;;;;;;;3.70;1.20;;;;;;;22.76;38.13;100023.27;103870;277;38893;-75
2023/08/08 10:28:42;;;;;;;2.30;1.00;;;;;;;22.57;38.08;100016.23;103801;278;38575;-76
2023/08/08 10:31:27;;;;;;;5.10;1.30;;;;;;;22.35;38.39;100017.14;103946;277;38282;-76
2023/08/08 10:34:09;;;;;;;3.70;1.30;;;;;;;22.38;39.00;100020.61;103901;277;39432;-74
2023/08/08 10:36:53;;;;;;;2.40;1.40;;;;;;;22.63;39.51;100017.27;103775;279;39895;-75
2023/08/08 10:39:28;;;;;;;2.30;1.10;;;;;;;22.91;39.87;100012.50;103860;277;39465;-74
2023/08/08 10:42:11;;;;;;;2.90;1.20;;;;;;;23.13;39.12;100012.11;103919;277;38992;-75
2023/08/08 10:44:53;;;;;;;2.60;1.20;;;;;;;23.32;39.18;100010.98;103881;278;39431;-75
2023/08/08 10:47:33;;;;;;;5.10;1.40;;;;;;;23.55;38.68;100017.48;103800;279;39453;-75
2023/08/08 10:50:11;;;;;;;3.70;1.40;;;;;;;23.75;37.70;100014.98;103853;277;39417;-75
2023/08/08 10:53:05;;;;;;;2.50;1.20;;;;;;;23.77;37.24;100019.45;103933;277;38397;-74
2023/08/08 10:55:44;;;;;;;1.80;1.30;;;;;;;23.71;36.88;100015.80;103894;277;38482;-75
2023/08/08 10:58:20;;;;;;;3.20;1.20;;;;;;;23.63;36.74;100012.64;103923;277;38246;-76
2023/08/08 11:00:54;;;;;;;3.70;1.10;;;;;;;23.56;36.65;100024.73;103953;277;38451;-75
2023/08/08 11:03:31;;;;;;;4.70;1.20;;;;;;;23.45;36.50;100020.40;103850;277;38412;-74
2023/08/08 11:06:08;;;;;;;2.50;1.20;;;;;;;23.33;35.79;100021.06;103879;277;38241;-75
2023/08/08 11:08:47;;;;;;;2.10;1.10;;;;;;;23.19;35.90;100024.39;103822;275;39151;-77
2023/08/08 11:11:21;;;;;;;2.60;0.90;;;;;;;23.04;35.90;100027.66;103860;277;38320;-76
2023/08/08 11:14:02;;;;;;;2.30;1.20;;;;;;;22.88;36.18;100027.73;103838;278;41289;-77
2023/08/08 11:16:44;;;;;;;2.50;0.90;;;;;;;22.72;36.26;100029.73;103920;277;38747;-77
2023/08/08 11:19:24;;;;;;;1.60;1.10;;;;;;;22.66;37.15;100038.30;103962;277;38761;-77
2023/08/08 11:22:00;;;;;;;2.40;0.90;;;;;;;22.62;36.42;100034.21;103866;277;38641;-76
2023/08/08 11:24:41;;;;;;;2.20;0.90;;;;;;;22.68;37.50;100031.86;103838;277;39408;-76
2023/08/08 11:27:16;;;;;;;2.50;1.00;;;;;;;22.79;38.04;100033.16;103800;277;38521;-76
2023/08/08 11:29:57;;;;;;;2.30;1.10;;;;;;;22.82;37.55;100039.61;103857;277;38494;-76
2023/08/08 11:32:34;;;;;;;3.00;1.10;;;;;;;22.77;37.50;100042.10;103915;277;38255;-78
2023/08/08 11:35:13;;;;;;;1.60;0.90;;;;;;;22.66;37.50;100047.52;103877;277;38535;-77
2023/08/08 11:37:50;;;;;;;2.20;0.70;;;;;;;22.51;37.12;100046.48;103849;278;38413;-76
2023/08/08 11:40:28;;;;;;;1.90;0.90;;;;;;;22.39;37.53;100053.65;103854;277;39407;-77
2023/08/08 11:43:03;;;;;;;1.10;0.70;;;;;;;22.34;37.40;100046.05;103367;277;713562;-77
2023/08/08 11:45:37;;;;;;;1.50;0.80;;;;;;;22.30;36.92;100044.51;103868;277;38653;-77
2023/08/08 11:48:17;;;;;;;1.10;0.60;;;;;;;22.29;37.55;100049.05;103820;277;174797;-77
2023/08/08 11:50:55;;;;;;;1.70;0.90;;;;;;;22.45;37.79;100044.05;103823;278;39420;-77
2023/08/08 11:53:33;;;;;;;1.90;0.90;;;;;;;22.59;37.26;100045.00;103869;277;38258;-77
2023/08/08 11:56:08;;;;;;;2.30;0.80;;;;;;;22.59;36.91;100046.77;103908;277;38292;-77
2023/08/08 11:58:42;;;;;;;1.40;0.80;;;;;;;22.64;37.15;100039.73;103737;279;38895;-77
2023/08/08 12:01:23;;;;;;;1.10;0.70;;;;;;;22.59;36.47;100044.47;103924;277;39412;-77
2023/08/08 12:03:59;;;;;;;1.10;0.70;;;;;;;22.45;36.48;100046.67;103811;277;38870;-77
2023/08/08 12:06:34;;;;;;;;;;;;;;;22.35;36.43;100049.75;103931;277;38757;-75
2023/08/08 12:09:09;;;;;;;2.40;0.90;;;;;;;22.25;37.02;100046.36;103863;277;38245;-75
2023/08/08 12:11:44;;;;;;;2.10;0.60;;;;;;;22.35;37.37;100049.33;103936;277;39586;-77
2023/08/08 12:14:20;;;;;;;4.00;1.00;;;;;;;22.50;37.34;100048.35;103785;277;174749;-77